Time;durP1;ratioP1;P1;durP2;ratioP2;P2;SDS_P1;SDS_P2;PMS_P1;PMS_P2;Temp;Humidity;BMP_temperature;BMP_pressure;BME280_temperature;BME280_humidity;BME280_pressure;Samples;Min_cycle;Max_cycle;Signal;HPM_P1;HPM_P2
2021/04/20 00:02:18;;;;;;;47.78;24.70;;;;;;;8.56;70.31;99182.48;1698802;82;21647;-73
2021/04/20 00:04:46;;;;;;;47.67;25.95;;;;;;;8.47;70.49;99182.66;1707394;82;21195;-73
2021/04/20 00:07:13;;;;;;;44.30;24.77;;;;;;;8.40;70.63;99182.70;1690782;83;21598;-73
2021/04/20 00:09:40;;;;;;;39.85;21.85;;;;;;;8.32;70.83;99184.53;1711288;82;21209;-73
2021/04/20 00:12:08;;;;;;;38.55;22.13;;;;;;;8.33;70.63;99188.86;1716834;83;21159;-74
2021/04/20 00:14:35;;;;;;;34.78;19.77;;;;;;;8.47;70.18;99179.19;1717812;82;21175;-73
2021/04/20 00:17:05;;;;;;;34.40;20.35;;;;;;;8.43;70.05;99181.65;1723449;82;21179;-74
2021/04/20 00:19:32;;;;;;;32.67;19.80;;;;;;;8.29;70.14;99176.86;1744410;82;21154;-74
2021/04/20 00:21:59;;;;;;;30.97;20.68;;;;;;;8.17;70.29;99171.13;1733175;82;21191;-74
2021/04/20 00:24:28;;;;;;;31.23;19.17;;;;;;;8.04;70.48;99177.72;1703052;82;21159;-73
2021/04/20 00:26:55;;;;;;;36.45;21.40;;;;;;;8.03;70.55;99172.94;1702908;83;21131;-71
2021/04/20 00:29:22;;;;;;;38.98;22.60;;;;;;;8.14;70.35;99163.45;1724768;82;21155;-72
2021/04/20 00:31:49;;;;;;;31.82;20.82;;;;;;;8.03;70.56;99166.35;1710986;83;21170;-73
2021/04/20 00:34:17;;;;;;;30.40;19.02;;;;;;;7.91;70.88;99168.50;1714622;83;21679;-72
2021/04/20 00:36:44;;;;;;;30.82;20.02;;;;;;;7.80;71.13;99161.81;1706094;82;21195;-73
2021/04/20 00:39:12;;;;;;;36.95;20.65;;;;;;;7.77;71.18;99154.14;1692530;83;21590;-73
2021/04/20 00:41:39;;;;;;;31.27;19.87;;;;;;;7.84;71.07;99151.47;1714687;82;21185;-73
2021/04/20 00:44:06;;;;;;;33.23;20.12;;;;;;;7.80;71.22;99149.97;1720578;82;22139;-72
2021/04/20 00:46:33;;;;;;;35.45;20.25;;;;;;;7.72;71.47;99146.54;1717535;82;21127;-73
2021/04/20 00:49:00;;;;;;;32.15;20.17;;;;;;;7.61;71.60;99143.34;1728154;82;21690;-73
2021/04/20 00:51:28;;;;;;;33.38;18.45;;;;;;;7.54;71.72;99142.06;1695679;83;21193;-73
2021/04/20 00:53:55;;;;;;;34.73;21.45;;;;;;;7.56;71.65;99141.49;1700655;82;21183;-73
2021/04/20 00:56:24;;;;;;;31.15;18.95;;;;;;;7.64;71.38;99137.02;1719518;82;21146;-73
2021/04/20 00:58:51;;;;;;;29.07;19.25;;;;;;;7.56;71.52;99136.23;1714971;83;21179;-73
2021/04/20 01:01:20;;;;;;;29.30;19.37;;;;;;;7.44;71.72;99129.98;1715399;82;21177;-73
2021/04/20 01:03:47;;;;;;;29.10;18.07;;;;;;;7.36;71.86;99131.81;1693034;83;21608;-73
2021/04/20 01:06:14;;;;;;;24.60;17.23;;;;;;;7.32;71.83;99138.23;1690373;82;21158;-73
2021/04/20 01:08:41;;;;;;;24.77;16.15;;;;;;;7.42;71.64;99133.66;1736768;82;21175;-73
2021/04/20 01:11:10;;;;;;;23.57;15.88;;;;;;;7.36;71.77;99125.23;1720140;81;21191;-73
2021/04/20 01:13:37;;;;;;;23.38;15.45;;;;;;;7.28;71.95;99120.15;1712393;82;21580;-73
2021/04/20 01:16:05;;;;;;;25.45;16.93;;;;;;;7.19;72.12;99115.03;1727338;82;21183;-73
2021/04/20 01:18:36;;;;;;;25.48;15.30;;;;;;;7.14;72.11;99114.48;1714617;83;21329;-73
2021/04/20 01:21:09;;;;;;;22.73;15.50;;;;;;;7.18;72.01;99110.70;1702561;82;21623;-74
2021/04/20 01:23:47;;;;;;;23.25;15.78;;;;;;;7.32;71.63;99113.25;1674305;86;21158;-73
2021/04/20 01:26:14;;;;;;;23.57;15.72;;;;;;;7.27;71.71;99104.82;1698514;82;21131;-73
2021/04/20 01:28:43;;;;;;;23.27;14.70;;;;;;;7.16;71.96;99099.44;1712060;82;22182;-73
2021/04/20 01:31:12;;;;;;;25.45;16.07;;;;;;;7.09;72.09;99100.32;1717546;83;21187;-74
2021/04/20 01:33:41;;;;;;;25.17;15.05;;;;;;;7.04;72.27;99093.21;1734883;82;21176;-73
2021/04/20 01:36:11;;;;;;;19.00;13.93;;;;;;;7.08;72.20;99085.97;1729866;82;21317;-74
2021/04/20 01:38:43;;;;;;;18.07;13.43;;;;;;;7.23;71.89;99077.05;1725564;82;21159;-74
2021/04/20 01:41:11;;;;;;;18.70;12.70;;;;;;;7.24;71.94;99082.69;1720429;82;21183;-73
2021/04/20 01:43:38;;;;;;;17.37;12.58;;;;;;;7.18;72.06;99081.78;1716785;83;21159;-73
2021/04/20 01:46:06;;;;;;;17.00;12.18;;;;;;;7.12;72.24;99083.50;1724500;82;21147;-73
2021/04/20 01:48:34;;;;;;;18.42;12.43;;;;;;;7.11;72.34;99079.17;1731639;81;21155;-74
2021/04/20 01:51:04;;;;;;;19.82;12.73;;;;;;;7.25;72.05;99080.43;1717085;82;21190;-73
2021/04/20 01:53:31;;;;;;;18.82;13.20;;;;;;;7.32;71.94;99086.94;1730097;81;21181;-73
2021/04/20 01:56:03;;;;;;;21.57;12.60;;;;;;;7.26;72.07;99073.38;1717568;83;21472;-73
2021/04/20 01:58:31;;;;;;;19.10;13.38;;;;;;;7.19;72.21;99079.52;1736120;82;21620;-73
2021/04/20 02:01:02;;;;;;;22.52;13.98;;;;;;;7.14;72.36;99069.79;1724989;82;21190;-73
2021/04/20 02:03:31;;;;;;;20.70;13.28;;;;;;;7.14;72.39;99067.98;1719281;82;21139;-73
2021/04/20 02:05:59;;;;;;;19.35;13.80;;;;;;;7.29;72.04;99071.37;1727555;82;21163;-73
2021/04/20 02:08:26;;;;;;;18.95;13.78;;;;;;;7.29;72.00;99064.80;1639467;85;21580;-73
2021/04/20 02:10:53;;;;;;;21.05;14.25;;;;;;;7.23;72.13;99065.22;1709933;82;21139;-72
2021/04/20 02:13:21;;;;;;;20.37;14.47;;;;;;;7.16;72.25;99063.48;1706545;82;21162;-73
2021/04/20 02:15:49;;;;;;;22.07;13.93;;;;;;;7.11;72.37;99064.72;1705290;83;21187;-72
2021/04/20 02:18:16;;;;;;;17.60;13.08;;;;;;;7.11;72.33;99060.77;1715540;82;21166;-72
2021/04/20 02:20:44;;;;;;;18.87;13.13;;;;;;;7.20;71.97;99066.75;1714251;83;21131;-73
2021/04/20 02:23:11;;;;;;;20.17;13.80;;;;;;;7.18;71.99;99062.88;1647948;82;21128;-72
2021/04/20 02:25:38;;;;;;;19.62;13.43;;;;;;;7.11;72.16;99056.83;1735859;82;21695;-73
2021/04/20 02:28:06;;;;;;;19.42;13.32;;;;;;;7.06;72.25;99059.78;1742491;82;21223;-72
2021/04/20 02:30:33;;;;;;;21.77;13.62;;;;;;;6.94;72.18;99053.53;1716050;82;21531;-73
2021/04/20 02:33:01;;;;;;;18.87;12.47;;;;;;;6.83;72.38;99053.40;1700489;82;21182;-73
2021/04/20 02:35:29;;;;;;;17.98;12.55;;;;;;;6.82;72.39;99054.37;1695168;82;21552;-73
2021/04/20 02:37:56;;;;;;;19.70;13.55;;;;;;;6.94;72.05;99048.28;1744010;82;21178;-73
2021/04/20 02:40:27;;;;;;;17.00;12.28;;;;;;;6.90;72.18;99050.75;1727482;82;21635;-73
2021/04/20 02:42:54;;;;;;;17.92;12.80;;;;;;;6.80;72.34;99057.55;1715291;82;21130;-72
2021/04/20 02:45:23;;;;;;;18.40;12.03;;;;;;;6.70;72.58;99046.34;1697802;82;21602;-73
2021/04/20 02:47:51;;;;;;;19.10;13.10;;;;;;;6.63;72.90;99047.68;1716410;83;21202;-73
2021/04/20 02:50:24;;;;;;;16.57;11.90;;;;;;;6.65;73.09;99048.44;1734875;82;21195;-73
2021/04/20 02:52:54;;;;;;;18.60;11.95;;;;;;;6.83;72.79;99045.52;1710945;83;21197;-73
2021/04/20 02:55:23;;;;;;;18.10;12.20;;;;;;;6.85;72.87;99048.45;1710362;82;21167;-72
2021/04/20 02:57:56;;;;;;;19.55;13.13;;;;;;;6.81;73.11;99048.25;1709392;82;21313;-72
2021/04/20 03:00:24;;;;;;;18.55;12.73;;;;;;;6.77;73.23;99046.77;1701407;83;21190;-72
2021/04/20 03:02:56;;;;;;;20.48;12.88;;;;;;;6.70;73.37;99048.97;1709647;82;21264;-73
2021/04/20 03:05:27;;;;;;;17.50;12.03;;;;;;;6.70;73.44;99048.11;1720021;83;21176;-73
2021/04/20 03:07:55;;;;;;;18.20;12.53;;;;;;;6.84;73.25;99055.09;1708476;82;21560;-72
2021/04/20 03:10:22;;;;;;;19.50;12.28;;;;;;;6.85;73.40;99058.09;1740617;82;21148;-73
2021/04/20 03:12:50;;;;;;;20.32;13.40;;;;;;;6.83;73.57;99050.77;1699110;83;21184;-73
2021/04/20 03:15:17;;;;;;;17.35;12.33;;;;;;;6.80;73.71;99047.87;1713698;82;21176;-73
2021/04/20 03:17:47;;;;;;;18.92;11.95;;;;;;;6.84;73.71;99044.12;1700534;81;21476;-73
2021/04/20 03:20:17;;;;;;;18.15;12.23;;;;;;;7.03;73.30;99049.00;1660789;85;21662;-73
2021/04/20 03:22:45;;;;;;;20.70;11.80;;;;;;;7.09;73.12;99046.91;1715775;82;21734;-73
2021/04/20 03:25:19;;;;;;;16.95;12.28;;;;;;;7.04;73.26;99038.83;1658560;86;22198;-73
2021/04/20 03:27:50;;;;;;;17.90;11.85;;;;;;;7.01;73.40;99043.48;1702166;82;21202;-72
2021/04/20 03:30:20;;;;;;;16.85;10.90;;;;;;;6.96;73.49;99048.20;1708257;82;21154;-72
2021/04/20 03:33:13;;;;;;;20.12;11.85;;;;;;;6.90;73.68;99045.48;1718396;83;21603;-72
2021/04/20 03:35:55;;;;;;;19.42;12.60;;;;;;;7.02;73.47;99052.57;1714144;81;21316;-72
2021/04/20 03:38:35;;;;;;;16.80;12.88;;;;;;;7.15;73.35;99047.81;1704974;83;21313;-72
2021/04/20 03:41:27;;;;;;;26.55;16.67;;;;;;;7.08;73.52;99032.06;1740703;81;21728;-71
2021/04/20 03:43:58;;;;;;;21.55;15.38;;;;;;;7.11;73.63;99043.23;1721303;83;21158;-73
2021/04/20 03:46:34;;;;;;;19.70;14.45;;;;;;;7.11;73.61;99039.73;1724229;81;21142;-71
2021/04/20 03:49:18;;;;;;;18.50;13.08;;;;;;;7.18;73.51;99041.02;1728660;81;21272;-71
2021/04/20 03:51:47;;;;;;;18.12;12.75;;;;;;;7.38;73.08;99040.50;1701779;83;21757;-72
2021/04/20 03:54:15;;;;;;;19.07;13.72;;;;;;;7.42;73.01;99035.02;1730479;81;21174;-72
2021/04/20 03:56:46;;;;;;;17.42;13.35;;;;;;;7.41;73.10;99046.51;1736212;81;21180;-73
2021/04/20 03:59:14;;;;;;;17.50;12.55;;;;;;;7.41;73.21;99039.93;1705108;81;21217;-72
2021/04/20 04:01:47;;;;;;;18.70;12.90;;;;;;;7.49;73.15;99038.91;1725146;81;21210;-72
2021/04/20 04:04:20;;;;;;;17.80;13.43;;;;;;;7.66;72.92;99037.73;1702753;83;21178;-72
2021/04/20 04:06:48;;;;;;;18.60;12.68;;;;;;;7.70;73.06;99031.34;1723217;81;21733;-72
2021/04/20 04:09:18;;;;;;;20.23;13.13;;;;;;;7.73;73.19;99026.33;1700770;81;21236;-72
2021/04/20 04:12:06;;;;;;;15.78;12.20;;;;;;;7.82;73.16;99030.94;1697844;83;21566;-72
2021/04/20 04:14:35;;;;;;;15.28;11.65;;;;;;;8.12;72.96;99023.11;1732277;81;21304;-72
2021/04/20 04:17:05;;;;;;;17.57;12.53;;;;;;;8.63;72.08;99024.73;1706256;83;21181;-72
2021/04/20 04:19:45;;;;;;;16.82;12.00;;;;;;;9.07;70.42;99018.42;1753535;81;21304;-73
2021/04/20 04:22:16;;;;;;;16.10;12.45;;;;;;;9.49;69.16;99017.41;1707084;83;21126;-72
2021/04/20 04:24:56;;;;;;;16.73;12.30;;;;;;;9.90;67.64;99022.55;1728217;81;21186;-73
2021/04/20 04:27:28;;;;;;;16.97;10.82;;;;;;;10.25;66.80;99013.59;1752713;81;21179;-73
2021/04/20 04:29:59;;;;;;;14.47;10.68;;;;;;;10.50;65.89;99010.33;1758116;81;21216;-73
2021/04/20 04:32:26;;;;;;;14.93;11.38;;;;;;;10.63;64.98;99008.83;1726941;82;21519;-72
2021/04/20 04:34:54;;;;;;;17.87;11.75;;;;;;;10.48;65.04;99003.81;1697304;82;21257;-72
2021/04/20 04:37:21;;;;;;;19.12;12.23;;;;;;;10.31;64.99;99014.92;1695640;84;21182;-72
2021/04/20 04:39:49;;;;;;;17.30;12.40;;;;;;;10.19;65.30;99005.33;1717890;82;21328;-73
2021/04/20 04:42:16;;;;;;;19.27;11.65;;;;;;;10.27;65.67;99003.75;1705349;84;21156;-73
2021/04/20 04:44:47;;;;;;;15.88;11.20;;;;;;;10.53;64.90;99003.45;1697743;82;21187;-72
2021/04/20 04:47:14;;;;;;;17.00;12.37;;;;;;;10.63;64.02;99001.73;1716425;82;21199;-73
2021/04/20 04:49:42;;;;;;;14.18;9.95;;;;;;;10.61;63.33;99010.75;1699382;84;21596;-73
2021/04/20 04:52:10;;;;;;;13.70;11.08;;;;;;;10.75;63.24;98993.74;1643030;86;21179;-73
2021/04/20 04:54:37;;;;;;;13.85;10.72;;;;;;;11.07;62.69;99004.27;1668593;86;21213;-73
2021/04/20 04:57:05;;;;;;;14.05;10.93;;;;;;;11.39;62.35;98993.23;1658572;84;21312;-73
2021/04/20 04:59:32;;;;;;;16.37;11.25;;;;;;;11.46;61.19;98995.72;1707738;82;21753;-73
2021/04/20 05:02:00;;;;;;;15.03;11.20;;;;;;;11.19;61.26;98994.47;1685089;82;21183;-72
2021/04/20 05:04:27;;;;;;;16.25;11.93;;;;;;;10.91;61.66;98997.29;1703605;82;21654;-73
2021/04/20 05:06:56;;;;;;;14.40;10.80;;;;;;;10.67;62.55;99001.48;1651991;85;21211;-75
2021/04/20 05:09:24;;;;;;;16.40;12.20;;;;;;;10.55;62.96;98989.64;1714039;82;21285;-76
2021/04/20 05:11:52;;;;;;;15.80;12.20;;;;;;;10.54;63.27;98986.63;1730480;81;21182;-76
2021/04/20 05:14:21;;;;;;;17.32;12.23;;;;;;;10.42;63.62;98992.91;1689538;84;21211;-75
2021/04/20 05:16:51;;;;;;;17.37;12.33;;;;;;;10.32;63.81;98989.67;1699457;82;21151;-75
2021/04/20 05:19:29;;;;;;;16.52;12.18;;;;;;;10.26;64.13;98991.49;1712852;82;21317;-75
2021/04/20 05:21:57;;;;;;;14.63;11.53;;;;;;;10.17;64.41;98988.28;1679464;85;21206;-75
2021/04/20 05:24:25;;;;;;;16.75;12.15;;;;;;;10.16;64.53;98995.84;1722202;82;21131;-76
2021/04/20 05:26:54;;;;;;;18.92;13.45;;;;;;;10.19;64.90;98993.44;1744543;82;21163;-76
2021/04/20 05:29:21;;;;;;;16.20;12.43;;;;;;;10.29;64.57;98996.55;1744637;82;21664;-75
2021/04/20 05:31:49;;;;;;;16.57;12.85;;;;;;;10.28;64.55;98985.61;1726738;82;21630;-75
2021/04/20 05:34:20;;;;;;;16.75;11.38;;;;;;;10.21;65.10;98989.70;1720516;83;21202;-75
2021/04/20 05:36:48;;;;;;;15.60;11.95;;;;;;;10.31;64.93;98997.24;1731324;82;21179;-76
2021/04/20 05:39:17;;;;;;;18.05;13.28;;;;;;;10.50;64.39;98998.43;1720358;82;21126;-75
2021/04/20 05:41:44;;;;;;;17.32;12.35;;;;;;;10.49;64.20;98988.81;1723268;82;21623;-75
2021/04/20 05:44:14;;;;;;;16.30;12.35;;;;;;;10.38;64.75;98980.92;1717961;82;21139;-75
2021/04/20 05:46:47;;;;;;;16.95;12.35;;;;;;;10.23;65.09;98983.83;1716561;82;21130;-78
2021/04/20 05:49:16;;;;;;;;;;;;;;;10.13;65.69;98992.97;1730653;82;21199;-76
2021/04/20 05:51:43;;;;;;;17.42;12.13;;;;;;;10.20;65.72;98986.70;1742360;82;20281;-77
2021/04/20 05:54:10;;;;;;;19.62;12.60;;;;;;;10.36;65.36;98988.13;1744864;82;21163;-76
2021/04/20 05:56:39;;;;;;;15.20;11.93;;;;;;;10.35;65.22;98989.08;1717581;82;21162;-75
2021/04/20 05:59:08;;;;;;;19.55;13.70;;;;;;;10.38;65.36;98988.84;1696457;83;21796;-76
2021/04/20 06:01:39;;;;;;;18.30;13.03;;;;;;;10.39;65.29;98987.89;1695134;82;21182;-76
2021/04/20 06:04:08;;;;;;;17.52;12.78;;;;;;;10.37;65.27;98988.48;1719893;82;21298;-76
2021/04/20 06:06:35;;;;;;;18.00;12.18;;;;;;;10.36;65.20;98975.77;1715698;83;21193;-76
2021/04/20 06:09:04;;;;;;;15.25;11.03;;;;;;;10.43;64.92;98980.06;1734099;82;21193;-75
2021/04/20 06:11:31;;;;;;;16.48;12.30;;;;;;;10.60;64.20;98977.34;1718910;82;21627;-75
2021/04/20 06:13:58;;;;;;;16.12;12.85;;;;;;;10.54;64.13;98985.30;1707514;82;21128;-74
2021/04/20 06:16:26;;;;;;;17.20;12.43;;;;;;;10.49;64.12;98974.27;1736731;82;21191;-75
2021/04/20 06:18:53;;;;;;;19.77;12.98;;;;;;;10.47;64.04;98978.84;1725890;82;21148;-75
2021/04/20 06:21:22;;;;;;;16.80;12.10;;;;;;;10.43;64.36;98972.13;1714410;82;21210;-77
2021/04/20 06:23:49;;;;;;;15.78;12.33;;;;;;;10.49;64.30;98968.98;1743736;82;21180;-75
2021/04/20 06:26:17;;;;;;;17.73;12.37;;;;;;;10.70;64.11;98969.48;1665117;84;21119;-74
2021/04/20 06:28:44;;;;;;;18.87;13.18;;;;;;;10.76;64.25;98967.16;1716574;82;21147;-76
2021/04/20 06:31:14;;;;;;;18.90;13.45;;;;;;;10.77;63.94;98960.91;1704278;83;21208;-76
2021/04/20 06:33:44;;;;;;;19.50;12.70;;;;;;;10.83;64.21;98959.55;1715940;82;21754;-75
2021/04/20 06:36:11;;;;;;;19.65;12.65;;;;;;;10.86;63.71;98965.92;1699545;82;21159;-75
2021/04/20 06:38:39;;;;;;;14.23;11.35;;;;;;;10.85;63.39;98965.56;1697350;84;21321;-75
2021/04/20 06:41:08;;;;;;;15.98;12.15;;;;;;;10.95;63.06;98963.81;1708995;82;21146;-75
2021/04/20 06:46:17;;;;;;;16.82;11.78;;;;;;;11.19;63.39;98958.73;1757054;79;22999;-74
2021/04/20 06:49:01;;;;;;;13.72;10.82;;;;;;;11.24;62.67;98957.86;1747194;80;21694;-76
2021/04/20 06:51:35;;;;;;;15.55;11.68;;;;;;;11.26;62.76;98957.22;1720589;80;21289;-77
2021/04/20 06:54:32;;;;;;;;;;;;;;;11.26;62.72;98959.88;1739285;82;21186;-76
2021/04/20 06:57:13;;;;;;;13.03;10.72;;;;;;;11.34;63.25;98950.44;1705700;83;20539;-76
2021/04/20 07:00:09;;;;;;;12.30;9.53;;;;;;;11.56;62.05;98959.53;1724085;82;21139;-76
2021/04/20 07:03:07;;;;;;;12.88;10.95;;;;;;;11.55;61.81;98952.55;1711136;83;21312;-75
2021/04/20 07:05:42;;;;;;;13.70;10.60;;;;;;;11.40;62.06;98951.23;1716765;82;21159;-74
2021/04/20 07:08:47;;;;;;;15.28;10.72;;;;;;;11.31;62.57;98952.37;1723743;82;21150;-74
2021/04/20 07:11:14;;;;;;;13.70;9.65;;;;;;;11.29;62.71;98949.03;1713081;82;21994;-76
2021/04/20 07:13:48;;;;;;;12.20;9.40;;;;;;;11.35;62.75;98942.86;1702958;83;21130;-76
2021/04/20 07:16:41;;;;;;;14.45;10.68;;;;;;;11.40;62.75;98950.73;1713114;83;21155;-76
2021/04/20 07:19:38;;;;;;;11.40;8.98;;;;;;;11.42;62.75;98954.11;1735594;82;21321;-77
2021/04/20 07:22:44;;;;;;;13.15;9.55;;;;;;;11.49;62.81;98946.46;1754424;82;21336;-76
2021/04/20 07:25:34;;;;;;;10.63;8.43;;;;;;;11.55;61.44;98941.95;1722998;82;21159;-76
2021/04/20 07:28:19;;;;;;;10.45;8.08;;;;;;;11.61;61.69;98940.10;1705705;83;21436;-75
2021/04/20 07:31:11;;;;;;;12.03;8.15;;;;;;;11.60;60.92;98942.39;1712331;82;21158;-76
2021/04/20 07:33:57;;;;;;;9.75;7.45;;;;;;;11.66;61.22;98932.23;1721686;82;21147;-76
2021/04/20 07:37:04;;;;;;;10.70;7.80;;;;;;;11.80;60.53;98939.32;1756497;82;21195;-75
2021/04/20 07:40:04;;;;;;;10.05;8.35;;;;;;;11.80;60.22;98935.81;1724157;82;21545;-74
2021/04/20 07:43:23;;;;;;;9.95;7.40;;;;;;;11.80;60.14;98933.16;1778975;79;24154;-75
2021/04/20 07:46:22;;;;;;;8.83;6.30;;;;;;;11.73;60.52;98937.35;1774049;80;21466;-74
2021/04/20 07:49:10;;;;;;;9.70;7.22;;;;;;;11.71;59.71;98940.61;1774963;80;21150;-75
2021/04/20 07:52:04;;;;;;;7.58;6.42;;;;;;;11.71;60.01;98939.28;1729207;82;21289;-75
2021/04/20 07:54:43;;;;;;;8.93;6.65;;;;;;;11.90;60.58;98927.90;1649581;87;21182;-74
2021/04/20 07:57:25;;;;;;;11.20;7.83;;;;;;;12.04;59.57;98919.58;1682047;83;21307;-75
2021/04/20 08:00:00;;;;;;;10.05;7.53;;;;;;;12.10;59.44;98915.05;1732574;82;21145;-74
2021/04/20 08:02:39;;;;;;;8.63;6.92;;;;;;;12.18;59.09;98920.98;1718756;82;21171;-76
2021/04/20 08:05:36;;;;;;;9.60;7.50;;;;;;;12.26;58.41;98917.17;1721638;82;21360;-76
2021/04/20 08:08:20;;;;;;;7.92;5.47;;;;;;;12.38;59.08;98911.70;1706621;83;21135;-76
2021/04/20 08:10:58;;;;;;;8.35;6.20;;;;;;;12.49;56.85;98908.91;1738181;82;21132;-77
2021/04/20 08:14:03;;;;;;;8.63;5.47;;;;;;;12.46;56.84;98902.57;1634140;86;21213;-76
2021/04/20 08:16:54;;;;;;;7.33;6.00;;;;;;;12.51;57.41;98916.25;1732641;82;21148;-76
2021/04/20 08:19:30;;;;;;;7.08;5.28;;;;;;;12.44;55.39;98913.33;1703943;83;21171;-76
2021/04/20 08:21:57;;;;;;;7.92;5.22;;;;;;;12.20;56.08;98904.47;1717359;82;21183;-77
2021/04/20 08:24:57;;;;;;;7.03;5.08;;;;;;;12.00;55.39;98910.73;1715164;82;21194;-76
2021/04/20 08:27:43;;;;;;;7.55;5.78;;;;;;;11.81;55.98;98909.68;1699755;83;21158;-76
2021/04/20 08:30:19;;;;;;;9.25;6.22;;;;;;;11.63;57.19;98905.53;1715125;82;21162;-78
2021/04/20 08:32:51;;;;;;;8.50;6.00;;;;;;;11.55;58.33;98906.21;1701857;83;21591;-77
2021/04/20 08:35:23;;;;;;;7.75;5.37;;;;;;;11.50;58.61;98901.81;1660058;85;21194;-77
2021/04/20 08:38:28;;;;;;;6.77;5.60;;;;;;;11.60;58.49;98897.88;1671639;85;21198;-77
2021/04/20 08:41:13;;;;;;;7.47;5.72;;;;;;;11.60;57.89;98898.70;1676769;83;21194;-74
2021/04/20 08:43:57;;;;;;;7.60;6.08;;;;;;;11.52;58.64;98905.17;1677915;84;21154;-76
2021/04/20 08:47:12;;;;;;;6.45;5.55;;;;;;;11.47;58.61;98900.73;1647766;86;21162;-73
2021/04/20 08:50:08;;;;;;;5.53;4.87;;;;;;;11.41;58.66;98902.63;1672533;84;21350;-74
2021/04/20 08:52:53;;;;;;;9.93;6.20;;;;;;;11.28;58.47;98893.09;1642108;86;21275;-75
2021/04/20 08:55:52;;;;;;;7.25;5.95;;;;;;;11.13;59.59;98895.75;1672361;84;21483;-75
2021/04/20 08:59:04;;;;;;;7.75;6.22;;;;;;;11.04;60.39;98901.34;1647569;86;21203;-75
2021/04/20 09:01:56;;;;;;;8.08;5.65;;;;;;;11.15;60.44;98897.76;1683645;84;21343;-75
2021/04/20 09:05:04;;;;;;;10.43;6.00;;;;;;;11.20;60.54;98896.91;1664330;86;21222;-77
2021/04/20 09:07:52;;;;;;;9.18;5.90;;;;;;;11.26;60.38;98891.55;1668398;84;21324;-76
2021/04/20 09:10:41;;;;;;;8.25;6.70;;;;;;;11.27;59.78;98895.38;1664750;86;21222;-77
2021/04/20 09:13:15;;;;;;;9.18;6.78;;;;;;;11.22;60.06;98892.30;1674872;84;21636;-74
2021/04/20 09:15:52;;;;;;;6.30;5.62;;;;;;;11.15;59.82;98895.11;1671778;84;21361;-77
2021/04/20 09:18:34;;;;;;;8.63;5.65;;;;;;;11.12;60.87;98888.28;1654666;86;21675;-76
2021/04/20 09:21:06;;;;;;;9.08;5.42;;;;;;;11.25;60.36;98878.81;1663882;84;21215;-75
2021/04/20 09:23:56;;;;;;;7.67;5.90;;;;;;;11.24;60.24;98889.05;1657494;85;21357;-77
2021/04/20 09:26:55;;;;;;;6.83;5.87;;;;;;;11.27;59.92;98876.85;1666431;84;21194;-76
2021/04/20 09:29:57;;;;;;;8.63;6.25;;;;;;;11.27;59.62;98872.88;1667965;86;21285;-76
2021/04/20 09:32:35;;;;;;;7.78;6.00;;;;;;;11.31;59.96;98874.28;1662620;84;21773;-76
2021/04/20 09:35:05;;;;;;;7.03;6.03;;;;;;;11.34;59.55;98873.67;1662304;84;21167;-76
2021/04/20 09:37:35;;;;;;;7.37;6.05;;;;;;;11.35;57.79;98864.77;1651562;86;21329;-76
2021/04/20 09:40:04;;;;;;;9.15;6.70;;;;;;;11.43;58.73;98860.95;1646120;86;21199;-78
2021/04/20 09:42:31;;;;;;;6.97;5.92;;;;;;;11.51;59.54;98859.80;1648501;86;21231;-76
2021/04/20 09:45:33;;;;;;;7.60;5.92;;;;;;;11.75;57.87;98850.63;1662140;84;21200;-76
2021/04/20 09:48:20;;;;;;;7.15;5.95;;;;;;;11.88;58.00;98848.56;1677228;84;21691;-75
2021/04/20 09:51:07;;;;;;;8.90;6.75;;;;;;;12.04;56.69;98851.17;1645841;84;21600;-76
2021/04/20 09:54:01;;;;;;;8.13;6.30;;;;;;;12.14;56.88;98846.70;1722439;82;21186;-76
2021/04/20 09:56:44;;;;;;;7.53;5.72;;;;;;;12.18;55.67;98844.63;1708994;84;21092;-77
2021/04/20 09:59:39;;;;;;;9.08;6.20;;;;;;;12.11;56.06;98840.34;1710621;82;21268;-76
2021/04/20 10:02:51;;;;;;;9.15;6.67;;;;;;;12.12;55.08;98840.70;1707722;84;21183;-76
2021/04/20 10:05:50;;;;;;;7.83;6.67;;;;;;;12.16;56.89;98828.01;1708459;82;21187;-74
2021/04/20 10:08:44;;;;;;;8.30;6.72;;;;;;;12.32;55.65;98823.47;1722076;82;21183;-76
2021/04/20 10:11:23;;;;;;;8.73;6.40;;;;;;;12.37;56.74;98825.20;1671230;85;21210;-75
2021/04/20 10:14:18;;;;;;;7.45;6.10;;;;;;;12.35;55.67;98810.74;1693594;84;21345;-76
2021/04/20 10:16:58;;;;;;;9.45;6.75;;;;;;;12.35;55.62;98813.89;1709754;82;21167;-76
2021/04/20 10:19:51;;;;;;;9.50;6.90;;;;;;;12.44;55.92;98810.38;1666358;85;21173;-75
2021/04/20 10:23:06;;;;;;;8.90;6.25;;;;;;;12.62;54.81;98818.42;1707324;83;21135;-75
2021/04/20 10:25:41;;;;;;;6.90;5.55;;;;;;;12.66;54.71;98815.00;1734657;82;21334;-75
2021/04/20 10:28:47;;;;;;;13.00;6.40;;;;;;;12.55;53.55;98814.20;1662674;86;21582;-74
2021/04/20 10:31:26;;;;;;;9.48;6.10;;;;;;;12.51;55.01;98812.00;1671246;84;21337;-72
2021/04/20 10:33:53;;;;;;;8.95;6.47;;;;;;;12.48;55.34;98821.07;1663736;84;21203;-73
2021/04/20 10:36:21;;;;;;;8.05;6.80;;;;;;;12.35;55.20;98819.20;1665666;84;21441;-73
2021/04/20 10:38:48;;;;;;;7.53;6.33;;;;;;;12.17;54.91;98827.04;1668279;84;21576;-72
2021/04/20 10:41:28;;;;;;;8.05;6.50;;;;;;;12.06;55.89;98826.21;1653351;86;21194;-71
2021/04/20 10:43:56;;;;;;;8.23;6.20;;;;;;;12.00;56.23;98825.94;1670099;85;21332;-71
2021/04/20 10:46:25;;;;;;;11.73;6.95;;;;;;;11.95;56.96;98821.88;1692733;82;21313;-73
2021/04/20 10:48:54;;;;;;;8.43;6.90;;;;;;;11.96;56.93;98827.52;1670106;85;21239;-72
2021/04/20 10:51:37;;;;;;;8.18;6.70;;;;;;;11.92;56.47;98824.78;1696625;83;21557;-73
2021/04/20 10:54:07;;;;;;;7.85;5.53;;;;;;;11.91;55.50;98827.08;1715060;83;21175;-70
2021/04/20 10:56:34;;;;;;;8.45;6.33;;;;;;;11.87;54.91;98816.91;1727415;82;21273;-71
2021/04/20 10:59:07;;;;;;;7.78;5.83;;;;;;;11.83;54.87;98820.33;1702853;83;21568;-72
2021/04/20 11:01:37;;;;;;;9.73;6.62;;;;;;;11.86;55.07;98817.39;1706188;82;21187;-72
2021/04/20 11:04:05;;;;;;;8.33;6.70;;;;;;;11.88;55.53;98816.77;1607053;86;21737;-72
2021/04/20 11:07:11;;;;;;;8.53;6.55;;;;;;;11.94;56.27;98818.87;1722878;83;21675;-72
2021/04/20 11:09:39;;;;;;;8.28;6.33;;;;;;;12.03;56.18;98812.40;1736236;82;22477;-72
2021/04/20 11:12:18;;;;;;;8.75;6.55;;;;;;;12.14;55.98;98818.88;1706652;83;21131;-71
2021/04/20 11:14:51;;;;;;;8.58;6.17;;;;;;;12.15;55.79;98811.28;1719500;82;21191;-71
2021/04/20 11:17:26;;;;;;;8.13;6.30;;;;;;;12.11;56.05;98805.42;1712498;82;21615;-72
2021/04/20 11:20:15;;;;;;;9.98;5.78;;;;;;;12.08;55.09;98800.88;1712241;82;21107;-71
2021/04/20 11:22:53;;;;;;;8.00;6.28;;;;;;;12.05;53.73;98803.33;1710383;82;21158;-73
2021/04/20 11:25:46;;;;;;;8.10;5.83;;;;;;;12.11;54.27;98809.87;1702976;83;21139;-72
2021/04/20 11:28:20;;;;;;;7.00;5.37;;;;;;;12.13;53.88;98804.80;1715246;82;21183;-72
2021/04/20 11:30:59;;;;;;;7.70;6.47;;;;;;;12.14;53.82;98802.98;1722979;83;21151;-72
2021/04/20 11:33:49;;;;;;;10.40;5.87;;;;;;;12.12;53.04;98802.27;1725793;82;21705;-71
2021/04/20 11:36:24;;;;;;;7.42;6.12;;;;;;;12.11;54.09;98802.77;1693209;83;21183;-73
2021/04/20 11:38:52;;;;;;;;;;;;;;;12.17;54.18;98796.56;1705586;83;21155;-71
2021/04/20 11:41:27;;;;;;;7.50;6.33;;;;;;;12.15;53.64;98797.17;1719643;82;20134;-73
2021/04/20 11:43:59;;;;;;;8.95;7.17;;;;;;;12.07;54.22;98789.93;1702293;83;21488;-75
2021/04/20 11:46:29;;;;;;;8.78;6.90;;;;;;;11.98;55.16;98803.53;1714499;82;21180;-75
2021/04/20 11:48:59;;;;;;;8.25;6.65;;;;;;;11.96;55.64;98793.08;1715979;82;21151;-74
2021/04/20 11:51:33;;;;;;;8.50;6.40;;;;;;;11.94;56.02;98800.32;1689779;84;21143;-74
2021/04/20 11:54:01;;;;;;;8.30;5.95;;;;;;;11.96;55.54;98794.41;1715223;82;21554;-74
2021/04/20 11:56:37;;;;;;;8.28;6.08;;;;;;;12.00;55.54;98784.37;1711897;84;21190;-75
2021/04/20 11:59:04;;;;;;;7.10;5.55;;;;;;;12.02;53.71;98782.89;1709275;82;21138;-73
2021/04/20 12:01:32;;;;;;;8.50;6.85;;;;;;;12.00;53.77;98777.74;1707254;82;21559;-73
2021/04/20 12:04:05;;;;;;;8.45;6.53;;;;;;;12.00;54.90;98775.59;1692698;84;21167;-74
2021/04/20 12:06:42;;;;;;;8.75;6.25;;;;;;;12.03;55.26;98777.95;1717096;82;21163;-74
2021/04/20 12:09:14;;;;;;;9.40;6.15;;;;;;;12.07;54.62;98781.98;1696696;82;21182;-74